^^
Station Historical Data
Daily Summary for December 25, 2017 Units:  Both    English   Metric
« Previous Day
Next Day »
Daily Weekly Monthly Yearly Custom
  High: Low: Average:
Temperature: TemperatureF °F /  -17.8 °C 67.5 °F /  19.7 °C 79.8 °F /  26.6 °C
Dew Point: DewpointF °F /  -17.8 °C 20.5 °F /  -6.4 °C 29.5 °F /  -1.4 °C
Humidity: Humidity% 10% 16%
Wind Speed: WindSpeedMPHmph /  0km/h - 2.4mph /  3.9km/h
Wind Gust: WindSpeedGustMPHmph /  0km/h - -
Wind- - South
Pressure: PressureIn in /  0 hPa 30.03 in /  1016.8 hPa -
Precipitation: 0.00 in /  0 mm    
Historical Graphs
 
 
Tabular Data for December 25, 2017
Time Temperature Dew Point Pressure Wind Wind Speed Wind Gust Humidity Rainfall Rate (Hourly) solar Conditions
TemperatureF °F /  -17.8 °C DewpointF °F /  -17.8 °C PressureInin /  0hPa Calm     Humidity% HourlyPrecipInin /  0mm SolarRadiationWatts/m^2 W/m2 Conditions
00:00 72.9 °F /  22.7 °C 36.0 °F /  2.2 °C 30.12in /  1019.9hPa West 6.0mph /  9.7km/h 7.0mph /  11.3km/h 26% 0.00in /  0mm 0.0 W/m2
00:05 72.7 °F /  22.6 °C 35.8 °F /  2.1 °C 30.13in /  1020.2hPa WSW 2.0mph /  3.2km/h 7.0mph /  11.3km/h 26% 0.00in /  0mm 0.0 W/m2
00:10 72.7 °F /  22.6 °C 35.8 °F /  2.1 °C 30.12in /  1019.9hPa WSW 0.9mph /  1.4km/h 3.0mph /  4.8km/h 26% 0.00in /  0mm 0.0 W/m2
00:11 72.7 °F /  22.6 °C 35.8 °F /  2.1 °C 30.13in /  1020.2hPa Calm   3.0mph /  4.8km/h 26% 0.00in /  0mm 0.0 W/m2
00:16 72.5 °F /  22.5 °C 35.6 °F /  2 °C 30.12in /  1019.9hPa SW 2.9mph /  4.7km/h 4.0mph /  6.4km/h 26% 0.00in /  0mm 0.0 W/m2
00:18 72.3 °F /  22.4 °C 34.5 °F /  1.4 °C 30.13in /  1020.2hPa West 6.9mph /  11.1km/h 7.0mph /  11.3km/h 25% 0.00in /  0mm 0.0 W/m2
00:24 72.3 °F /  22.4 °C 34.5 °F /  1.4 °C 30.13in /  1020.2hPa WSW 2.9mph /  4.7km/h 4.0mph /  6.4km/h 25% 0.00in /  0mm 0.0 W/m2
00:29 72.3 °F /  22.4 °C 33.4 °F /  0.8 °C 30.13in /  1020.2hPa Calm   4.0mph /  6.4km/h 24% 0.00in /  0mm 0.0 W/m2
00:31 72.3 °F /  22.4 °C 33.4 °F /  0.8 °C 30.13in /  1020.2hPa West 6.0mph /  9.7km/h 6.0mph /  9.7km/h 24% 0.00in /  0mm 0.0 W/m2
00:36 72.5 °F /  22.5 °C 33.6 °F /  0.9 °C 30.13in /  1020.2hPa WSW 8.1mph /  13km/h 8.1mph /  13km/h 24% 0.00in /  0mm 0.0 W/m2
00:41 72.3 °F /  22.4 °C 33.4 °F /  0.8 °C 30.13in /  1020.2hPa WSW 2.0mph /  3.2km/h 5.0mph /  8km/h 24% 0.00in /  0mm 0.0 W/m2
00:46 72.3 °F /  22.4 °C 33.4 °F /  0.8 °C 30.13in /  1020.2hPa SW 2.9mph /  4.7km/h 7.0mph /  11.3km/h 24% 0.00in /  0mm 0.0 W/m2
00:51 72.3 °F /  22.4 °C 33.4 °F /  0.8 °C 30.12in /  1019.9hPa SW 2.0mph /  3.2km/h 8.0mph /  12.9km/h 24% 0.00in /  0mm 0.0 W/m2
00:52 72.3 °F /  22.4 °C 33.4 °F /  0.8 °C 30.12in /  1019.9hPa SW 2.0mph /  3.2km/h 8.0mph /  12.9km/h 24% 0.00in /  0mm 0.0 W/m2
00:57 72.1 °F /  22.3 °C 33.4 °F /  0.8 °C 30.12in /  1019.9hPa SSW 2.0mph /  3.2km/h 6.0mph /  9.7km/h 24% 0.00in /  0mm 0.0 W/m2
01:01 72.1 °F /  22.3 °C 32.4 °F /  0.2 °C 30.12in /  1019.9hPa WSW 2.0mph /  3.2km/h 9.0mph /  14.5km/h 23% 0.00in /  0mm 0.0 W/m2
01:06 72.1 °F /  22.3 °C 32.4 °F /  0.2 °C 30.12in /  1019.9hPa SSW 2.0mph /  3.2km/h 9.0mph /  14.5km/h 23% 0.00in /  0mm 0.0 W/m2
01:11 72.1 °F /  22.3 °C 32.4 °F /  0.2 °C 30.12in /  1019.9hPa SSW 2.9mph /  4.7km/h 8.0mph /  12.9km/h 23% 0.00in /  0mm 0.0 W/m2
01:13 72.1 °F /  22.3 °C 31.1 °F /  -0.5 °C 30.12in /  1019.9hPa Calm   9.0mph /  14.5km/h 22% 0.00in /  0mm 0.0 W/m2
01:18 72.1 °F /  22.3 °C 31.1 °F /  -0.5 °C 30.12in /  1019.9hPa SW 4.0mph /  6.4km/h 8.0mph /  12.9km/h 22% 0.00in /  0mm 0.0 W/m2
01:23 72.1 °F /  22.3 °C 30.0 °F /  -1.1 °C 30.11in /  1019.5hPa WSW 2.0mph /  3.2km/h 7.0mph /  11.3km/h 21% 0.00in /  0mm 0.0 W/m2
01:28 72.1 °F /  22.3 °C 30.0 °F /  -1.1 °C 30.11in /  1019.5hPa West 2.0mph /  3.2km/h 4.0mph /  6.4km/h 21% 0.00in /  0mm 0.0 W/m2
01:29 72.1 °F /  22.3 °C 30.0 °F /  -1.1 °C 30.11in /  1019.5hPa Calm   4.0mph /  6.4km/h 21% 0.00in /  0mm 0.0 W/m2
01:34 72.1 °F /  22.3 °C 28.8 °F /  -1.8 °C 30.11in /  1019.5hPa West 4.9mph /  7.9km/h 5.0mph /  8km/h 20% 0.00in /  0mm 0.0 W/m2
01:39 72.1 °F /  22.3 °C 28.8 °F /  -1.8 °C 30.11in /  1019.5hPa Calm   6.0mph /  9.7km/h 20% 0.00in /  0mm 0.0 W/m2
01:45 72.1 °F /  22.3 °C 27.7 °F /  -2.4 °C 30.11in /  1019.5hPa SW 4.9mph /  7.9km/h 6.0mph /  9.7km/h 19% 0.00in /  0mm 0.0 W/m2
01:46 72.1 °F /  22.3 °C 27.7 °F /  -2.4 °C 30.11in /  1019.5hPa West 0.9mph /  1.4km/h 6.0mph /  9.7km/h 19% 0.00in /  0mm 0.0 W/m2
01:52 72.1 °F /  22.3 °C 27.7 °F /  -2.4 °C 30.10in /  1019.2hPa West 2.9mph /  4.7km/h 7.0mph /  11.3km/h 19% 0.00in /  0mm 0.0 W/m2
01:57 72.0 °F /  22.2 °C 27.5 °F /  -2.5 °C 30.10in /  1019.2hPa Calm   5.0mph /  8km/h 19% 0.00in /  0mm 0.0 W/m2
02:02 72.0 °F /  22.2 °C 28.8 °F /  -1.8 °C 30.10in /  1019.2hPa WNW 0.9mph /  1.4km/h 4.0mph /  6.4km/h 20% 0.00in /  0mm 0.0 W/m2
02:07 72.0 °F /  22.2 °C 27.5 °F /  -2.5 °C 30.10in /  1019.2hPa West 6.0mph /  9.7km/h 8.0mph /  12.9km/h 19% 0.00in /  0mm 0.0 W/m2
02:12 72.0 °F /  22.2 °C 28.8 °F /  -1.8 °C 30.10in /  1019.2hPa Calm   5.0mph /  8km/h 20% 0.00in /  0mm 0.0 W/m2
02:15 71.8 °F /  22.1 °C 28.6 °F /  -1.9 °C 30.10in /  1019.2hPa West 2.9mph /  4.7km/h 5.0mph /  8km/h 20% 0.00in /  0mm 0.0 W/m2
02:20 71.6 °F /  22 °C 28.4 °F /  -2 °C 30.10in /  1019.2hPa Calm   8.0mph /  12.9km/h 20% 0.00in /  0mm 0.0 W/m2
02:25 71.4 °F /  21.9 °C 28.2 °F /  -2.1 °C 30.10in /  1019.2hPa WSW 2.0mph /  3.2km/h 3.0mph /  4.8km/h 20% 0.00in /  0mm 0.0 W/m2
02:30 71.2 °F /  21.8 °C 29.3 °F /  -1.5 °C 30.10in /  1019.2hPa West 0.9mph /  1.4km/h 6.0mph /  9.7km/h 21% 0.00in /  0mm 0.0 W/m2
02:34 71.1 °F /  21.7 °C 28.0 °F /  -2.2 °C 30.10in /  1019.2hPa WNW 8.1mph /  13km/h 8.1mph /  13km/h 20% 0.00in /  0mm 0.0 W/m2
02:39 71.1 °F /  21.7 °C 29.1 °F /  -1.6 °C 30.10in /  1019.2hPa Calm   3.0mph /  4.8km/h 21% 0.00in /  0mm 0.0 W/m2
02:45 70.9 °F /  21.6 °C 27.9 °F /  -2.3 °C 30.10in /  1019.2hPa SSE 2.9mph /  4.7km/h 6.0mph /  9.7km/h 20% 0.00in /  0mm 0.0 W/m2
02:50 70.9 °F /  21.6 °C 27.9 °F /  -2.3 °C 30.10in /  1019.2hPa South 0.9mph /  1.4km/h 9.0mph /  14.5km/h 20% 0.00in /  0mm 0.0 W/m2
02:55 70.7 °F /  21.5 °C 28.8 °F /  -1.8 °C 30.10in /  1019.2hPa SW 0.9mph /  1.4km/h 3.0mph /  4.8km/h 21% 0.00in /  0mm 0.0 W/m2
03:00 70.5 °F /  21.4 °C 28.8 °F /  -1.8 °C 30.10in /  1019.2hPa SW 2.0mph /  3.2km/h 4.0mph /  6.4km/h 21% 0.00in /  0mm 0.0 W/m2
03:05 70.5 °F /  21.4 °C 28.8 °F /  -1.8 °C 30.10in /  1019.2hPa Calm   7.0mph /  11.3km/h 21% 0.00in /  0mm 0.0 W/m2
03:10 70.3 °F /  21.3 °C 28.6 °F /  -1.9 °C 30.10in /  1019.2hPa SW 4.0mph /  6.4km/h 11.0mph /  17.7km/h 21% 0.00in /  0mm 0.0 W/m2
03:13 70.2 °F /  21.2 °C 28.4 °F /  -2 °C 30.10in /  1019.2hPa West 2.9mph /  4.7km/h 6.0mph /  9.7km/h 21% 0.00in /  0mm 0.0 W/m2
03:18 70.2 °F /  21.2 °C 28.4 °F /  -2 °C 30.09in /  1018.8hPa SSW 4.9mph /  7.9km/h 8.0mph /  12.9km/h 21% 0.00in /  0mm 0.0 W/m2
03:23 70.0 °F /  21.1 °C 28.2 °F /  -2.1 °C 30.09in /  1018.8hPa WSW 2.0mph /  3.2km/h 7.0mph /  11.3km/h 21% 0.00in /  0mm 0.0 W/m2
03:28 69.6 °F /  20.9 °C 27.9 °F /  -2.3 °C 30.09in /  1018.8hPa WSW 2.0mph /  3.2km/h 6.0mph /  9.7km/h 21% 0.00in /  0mm 0.0 W/m2
03:34 69.6 °F /  20.9 °C 27.9 °F /  -2.3 °C 30.09in /  1018.8hPa Calm   4.0mph /  6.4km/h 21% 0.00in /  0mm 0.0 W/m2
03:39 69.4 °F /  20.8 °C 28.9 °F /  -1.7 °C 30.09in /  1018.8hPa SW 4.0mph /  6.4km/h 9.0mph /  14.5km/h 22% 0.00in /  0mm 0.0 W/m2
03:44 69.3 °F /  20.7 °C 27.7 °F /  -2.4 °C 30.09in /  1018.8hPa WSW 2.9mph /  4.7km/h 9.0mph /  14.5km/h 21% 0.00in /  0mm 0.0 W/m2
03:49 69.4 °F /  20.8 °C 27.9 °F /  -2.3 °C 30.09in /  1018.8hPa West 2.0mph /  3.2km/h 6.0mph /  9.7km/h 21% 0.00in /  0mm 0.0 W/m2
03:52 69.3 °F /  20.7 °C 28.8 °F /  -1.8 °C 30.09in /  1018.8hPa Calm   3.0mph /  4.8km/h 22% 0.00in /  0mm 0.0 W/m2
03:57 69.3 °F /  20.7 °C 28.8 °F /  -1.8 °C 30.10in /  1019.2hPa ENE 4.9mph /  7.9km/h 6.0mph /  9.7km/h 22% 0.00in /  0mm 0.0 W/m2
04:02 69.1 °F /  20.6 °C 27.5 °F /  -2.5 °C 30.11in /  1019.5hPa SE 2.0mph /  3.2km/h 9.0mph /  14.5km/h 21% 0.00in /  0mm 0.0 W/m2
04:08 69.1 °F /  20.6 °C 27.5 °F /  -2.5 °C 30.12in /  1019.9hPa Calm   2.0mph /  3.2km/h 21% 0.00in /  0mm 0.0 W/m2
04:13 68.9 °F /  20.5 °C 28.4 °F /  -2 °C 30.11in /  1019.5hPa ENE 4.9mph /  7.9km/h 5.0mph /  8km/h 22% 0.00in /  0mm 0.0 W/m2
04:19 68.7 °F /  20.4 °C 26.1 °F /  -3.3 °C 30.11in /  1019.5hPa South 2.0mph /  3.2km/h 7.0mph /  11.3km/h 20% 0.00in /  0mm 0.0 W/m2
04:25 69.1 °F /  20.6 °C 23.7 °F /  -4.6 °C 30.11in /  1019.5hPa SSE 2.9mph /  4.7km/h 10.0mph /  16.1km/h 18% 0.00in /  0mm 0.0 W/m2
04:30 69.3 °F /  20.7 °C 23.9 °F /  -4.5 °C 30.11in /  1019.5hPa Calm   8.0mph /  12.9km/h 18% 0.00in /  0mm 0.0 W/m2
04:35 69.3 °F /  20.7 °C 22.6 °F /  -5.2 °C 30.11in /  1019.5hPa SSW 0.9mph /  1.4km/h 1.0mph /  1.6km/h 17% 0.00in /  0mm 0.0 W/m2
04:40 69.3 °F /  20.7 °C 22.6 °F /  -5.2 °C 30.11in /  1019.5hPa Calm   1.0mph /  1.6km/h 17% 0.00in /  0mm 0.0 W/m2
04:45 69.1 °F /  20.6 °C 23.7 °F /  -4.6 °C 30.12in /  1019.9hPa WSW 0.9mph /  1.4km/h 4.0mph /  6.4km/h 18% 0.00in /  0mm 0.0 W/m2
04:49 68.7 °F /  20.4 °C 23.5 °F /  -4.7 °C 30.12in /  1019.9hPa Calm   1.0mph /  1.6km/h 18% 0.00in /  0mm 0.0 W/m2
04:54 68.4 °F /  20.2 °C 23.2 °F /  -4.9 °C 30.12in /  1019.9hPa Calm   3.0mph /  4.8km/h 18% 0.00in /  0mm 0.0 W/m2
04:59 68.2 °F /  20.1 °C 21.7 °F /  -5.7 °C 30.12in /  1019.9hPa WSW 0.9mph /  1.4km/h 4.0mph /  6.4km/h 17% 0.00in /  0mm 0.0 W/m2
05:05 68.2 °F /  20.1 °C 21.7 °F /  -5.7 °C 30.12in /  1019.9hPa West 6.9mph /  11.1km/h 7.0mph /  11.3km/h 17% 0.00in /  0mm 0.0 W/m2
05:17 68.4 °F /  20.2 °C 20.5 °F /  -6.4 °C 30.12in /  1019.9hPa Calm   4.0mph /  6.4km/h 16% 0.00in /  0mm 0.0 W/m2
05:18 68.4 °F /  20.2 °C 20.5 °F /  -6.4 °C 30.12in /  1019.9hPa South 4.0mph /  6.4km/h 6.0mph /  9.7km/h 16% 0.00in /  0mm 0.0 W/m2
05:23 68.5 °F /  20.3 °C 20.5 °F /  -6.4 °C 30.12in /  1019.9hPa Calm   2.0mph /  3.2km/h 16% 0.00in /  0mm 0.0 W/m2
05:33 68.4 °F /  20.2 °C 23.2 °F /  -4.9 °C 30.12in /  1019.9hPa Calm   1.0mph /  1.6km/h 18% 0.00in /  0mm 0.0 W/m2
05:38 68.2 °F /  20.1 °C 24.3 °F /  -4.3 °C 30.12in /  1019.9hPa Calm   1.0mph /  1.6km/h 19% 0.00in /  0mm 0.0 W/m2
05:40 68.0 °F /  20 °C 24.3 °F /  -4.3 °C 30.12in /  1019.9hPa ESE 2.9mph /  4.7km/h 3.0mph /  4.8km/h 19% 0.00in /  0mm 0.0 W/m2
05:45 67.6 °F /  19.8 °C 23.9 °F /  -4.5 °C 30.12in /  1019.9hPa Calm   1.0mph /  1.6km/h 19% 0.00in /  0mm 0.0 W/m2
05:51 67.5 °F /  19.7 °C 23.7 °F /  -4.6 °C 30.12in /  1019.9hPa SE 0.9mph /  1.4km/h 3.0mph /  4.8km/h 19% 0.00in /  0mm 0.0 W/m2
05:56 67.5 °F /  19.7 °C 23.7 °F /  -4.6 °C 30.12in /  1019.9hPa ESE 2.9mph /  4.7km/h 6.0mph /  9.7km/h 19% 0.00in /  0mm 0.0 W/m2
06:02 67.5 °F /  19.7 °C 23.7 °F /  -4.6 °C 30.13in /  1020.2hPa Calm   2.0mph /  3.2km/h 19% 0.00in /  0mm 0.0 W/m2
06:07 67.5 °F /  19.7 °C 25.0 °F /  -3.9 °C 30.13in /  1020.2hPa South 2.9mph /  4.7km/h 3.0mph /  4.8km/h 20% 0.00in /  0mm 0.0 W/m2
06:12 67.5 °F /  19.7 °C 23.7 °F /  -4.6 °C 30.13in /  1020.2hPa SSE 0.9mph /  1.4km/h 5.0mph /  8km/h 19% 0.00in /  0mm 5.0 W/m2
06:17 67.5 °F /  19.7 °C 23.7 °F /  -4.6 °C 30.13in /  1020.2hPa Calm   4.0mph /  6.4km/h 19% 0.00in /  0mm 7.0 W/m2
06:22 67.5 °F /  19.7 °C 23.7 °F /  -4.6 °C 30.13in /  1020.2hPa ESE 2.9mph /  4.7km/h 5.0mph /  8km/h 19% 0.00in /  0mm 11.0 W/m2
06:27 67.5 °F /  19.7 °C 25.0 °F /  -3.9 °C 30.13in /  1020.2hPa SSE 6.0mph /  9.7km/h 6.0mph /  9.7km/h 20% 0.00in /  0mm 12.0 W/m2
06:32 67.6 °F /  19.8 °C 25.2 °F /  -3.8 °C 30.13in /  1020.2hPa SSE 4.0mph /  6.4km/h 10.0mph /  16.1km/h 20% 0.00in /  0mm 14.0 W/m2
06:37 67.6 °F /  19.8 °C 26.2 °F /  -3.2 °C 30.13in /  1020.2hPa SSE 2.0mph /  3.2km/h 3.0mph /  4.8km/h 21% 0.00in /  0mm 16.0 W/m2
06:42 67.5 °F /  19.7 °C 25.0 °F /  -3.9 °C 30.13in /  1020.2hPa Calm   4.0mph /  6.4km/h 20% 0.00in /  0mm 16.0 W/m2
06:48 67.5 °F /  19.7 °C 27.3 °F /  -2.6 °C 30.14in /  1020.5hPa SSW 0.9mph /  1.4km/h 3.0mph /  4.8km/h 22% 0.00in /  0mm 18.0 W/m2
06:54 67.5 °F /  19.7 °C 28.4 °F /  -2 °C 30.14in /  1020.5hPa South 2.9mph /  4.7km/h 5.0mph /  8km/h 23% 0.00in /  0mm 19.0 W/m2
06:59 67.5 °F /  19.7 °C 27.3 °F /  -2.6 °C 30.14in /  1020.5hPa SSE 2.0mph /  3.2km/h 5.0mph /  8km/h 22% 0.00in /  0mm 21.0 W/m2
07:04 67.6 °F /  19.8 °C 28.6 °F /  -1.9 °C 30.14in /  1020.5hPa SSE 4.9mph /  7.9km/h 5.0mph /  8km/h 23% 0.00in /  0mm 23.0 W/m2
07:09 67.8 °F /  19.9 °C 28.6 °F /  -1.9 °C 30.14in /  1020.5hPa South 4.0mph /  6.4km/h 5.0mph /  8km/h 23% 0.00in /  0mm 25.0 W/m2
07:14 68.2 °F /  20.1 °C 27.9 °F /  -2.3 °C 30.14in /  1020.5hPa SW 0.9mph /  1.4km/h 6.0mph /  9.7km/h 22% 0.00in /  0mm 25.0 W/m2
07:19 68.4 °F /  20.2 °C 29.1 °F /  -1.6 °C 30.14in /  1020.5hPa SSE 2.9mph /  4.7km/h 6.0mph /  9.7km/h 23% 0.00in /  0mm 26.0 W/m2
07:24 68.7 °F /  20.4 °C 28.4 °F /  -2 °C 30.14in /  1020.5hPa East 4.0mph /  6.4km/h 6.0mph /  9.7km/h 22% 0.00in /  0mm 26.0 W/m2
07:29 69.1 °F /  20.6 °C 23.7 °F /  -4.6 °C 30.15in /  1020.9hPa ESE 8.1mph /  13km/h 14.0mph /  22.5km/h 18% 0.00in /  0mm 28.0 W/m2
07:32 69.4 °F /  20.8 °C 26.6 °F /  -3 °C 30.15in /  1020.9hPa ESE 6.9mph /  11.1km/h 11.0mph /  17.7km/h 20% 0.00in /  0mm 28.0 W/m2
07:37 70.0 °F /  21.1 °C 25.9 °F /  -3.4 °C 30.15in /  1020.9hPa ENE 4.9mph /  7.9km/h 9.0mph /  14.5km/h 19% 0.00in /  0mm 30.0 W/m2
07:40 70.2 °F /  21.2 °C 27.1 °F /  -2.7 °C 30.15in /  1020.9hPa East 4.0mph /  6.4km/h 9.0mph /  14.5km/h 20% 0.00in /  0mm 32.0 W/m2
07:46 70.5 °F /  21.4 °C 27.5 °F /  -2.5 °C 30.15in /  1020.9hPa ESE 2.9mph /  4.7km/h 10.0mph /  16.1km/h 20% 0.00in /  0mm 202.0 W/m2
07:51 70.9 °F /  21.6 °C 28.9 °F /  -1.7 °C 30.15in /  1020.9hPa ESE 2.9mph /  4.7km/h 5.0mph /  8km/h 21% 0.00in /  0mm 367.0 W/m2
07:57 71.4 °F /  21.9 °C 28.2 °F /  -2.1 °C 30.15in /  1020.9hPa ENE 2.9mph /  4.7km/h 8.0mph /  12.9km/h 20% 0.00in /  0mm 399.0 W/m2
08:01 71.8 °F /  22.1 °C 28.6 °F /  -1.9 °C 30.15in /  1020.9hPa ESE 4.0mph /  6.4km/h 5.0mph /  8km/h 20% 0.00in /  0mm 417.0 W/m2
08:07 72.1 °F /  22.3 °C 27.7 °F /  -2.4 °C 30.15in /  1020.9hPa SSW 2.0mph /  3.2km/h 5.0mph /  8km/h 19% 0.00in /  0mm 441.0 W/m2
08:13 72.5 °F /  22.5 °C 29.1 °F /  -1.6 °C 30.15in /  1020.9hPa Calm   6.0mph /  9.7km/h 20% 0.00in /  0mm 466.0 W/m2
08:19 73.0 °F /  22.8 °C 27.0 °F /  -2.8 °C 30.16in /  1021.2hPa ESE 4.9mph /  7.9km/h 9.0mph /  14.5km/h 18% 0.00in /  0mm 492.0 W/m2
08:24 73.4 °F /  23 °C 28.6 °F /  -1.9 °C 30.16in /  1021.2hPa ESE 4.9mph /  7.9km/h 12.0mph /  19.3km/h 19% 0.00in /  0mm 513.0 W/m2
08:32 73.8 °F /  23.2 °C 28.9 °F /  -1.7 °C 30.16in /  1021.2hPa SSE 2.9mph /  4.7km/h 10.0mph /  16.1km/h 19% 0.00in /  0mm 538.0 W/m2
08:34 73.9 °F /  23.3 °C 29.1 °F /  -1.6 °C 30.16in /  1021.2hPa ESE 8.9mph /  14.3km/h 15.0mph /  24.1km/h 19% 0.00in /  0mm 545.0 W/m2
08:39 74.1 °F /  23.4 °C 29.3 °F /  -1.5 °C 30.16in /  1021.2hPa SE 8.9mph /  14.3km/h 12.0mph /  19.3km/h 19% 0.00in /  0mm 566.0 W/m2
08:44 74.5 °F /  23.6 °C 29.5 °F /  -1.4 °C 30.16in /  1021.2hPa SSE 6.0mph /  9.7km/h 13.0mph /  20.9km/h 19% 0.00in /  0mm 585.0 W/m2
08:49 74.8 °F /  23.8 °C 29.8 °F /  -1.2 °C 30.16in /  1021.2hPa SE 6.9mph /  11.1km/h 12.0mph /  19.3km/h 19% 0.00in /  0mm 603.0 W/m2
08:54 75.0 °F /  23.9 °C 30.0 °F /  -1.1 °C 30.16in /  1021.2hPa SSE 4.0mph /  6.4km/h 11.0mph /  17.7km/h 19% 0.00in /  0mm 622.0 W/m2
08:59 75.4 °F /  24.1 °C 28.9 °F /  -1.7 °C 30.16in /  1021.2hPa SE 4.9mph /  7.9km/h 9.0mph /  14.5km/h 18% 0.00in /  0mm 640.0 W/m2
09:04 75.9 °F /  24.4 °C 29.3 °F /  -1.5 °C 30.16in /  1021.2hPa ENE 2.9mph /  4.7km/h 7.0mph /  11.3km/h 18% 0.00in /  0mm 657.0 W/m2
09:11 76.3 °F /  24.6 °C 30.9 °F /  -0.6 °C 30.16in /  1021.2hPa ESE 4.0mph /  6.4km/h 7.0mph /  11.3km/h 19% 0.00in /  0mm 680.0 W/m2
09:16 76.5 °F /  24.7 °C 28.4 °F /  -2 °C 30.16in /  1021.2hPa SE 4.0mph /  6.4km/h 9.0mph /  14.5km/h 17% 0.00in /  0mm 698.0 W/m2
09:21 76.8 °F /  24.9 °C 28.8 °F /  -1.8 °C 30.15in /  1020.9hPa SE 2.9mph /  4.7km/h 6.0mph /  9.7km/h 17% 0.00in /  0mm 714.0 W/m2
09:26 77.2 °F /  25.1 °C 27.5 °F /  -2.5 °C 30.16in /  1021.2hPa SE 2.0mph /  3.2km/h 7.0mph /  11.3km/h 16% 0.00in /  0mm 733.0 W/m2
09:29 77.4 °F /  25.2 °C 27.7 °F /  -2.4 °C 30.16in /  1021.2hPa Calm   3.0mph /  4.8km/h 16% 0.00in /  0mm 745.0 W/m2
09:34 77.9 °F /  25.5 °C 26.6 °F /  -3 °C 30.16in /  1021.2hPa Calm   5.0mph /  8km/h 15% 0.00in /  0mm 761.0 W/m2
09:39 78.1 °F /  25.6 °C 28.2 °F /  -2.1 °C 30.16in /  1021.2hPa Calm   5.0mph /  8km/h 16% 0.00in /  0mm 775.0 W/m2
09:44 78.1 °F /  25.6 °C 26.6 °F /  -3 °C 30.16in /  1021.2hPa South 2.9mph /  4.7km/h 3.0mph /  4.8km/h 15% 0.00in /  0mm 793.0 W/m2
09:49 78.1 °F /  25.6 °C 26.6 °F /  -3 °C 30.16in /  1021.2hPa Calm   3.0mph /  4.8km/h 15% 0.00in /  0mm 807.0 W/m2
09:54 78.3 °F /  25.7 °C 28.4 °F /  -2 °C 30.16in /  1021.2hPa SSW 0.9mph /  1.4km/h 2.0mph /  3.2km/h 16% 0.00in /  0mm 824.0 W/m2
10:00 79.2 °F /  26.2 °C 27.5 °F /  -2.5 °C 30.16in /  1021.2hPa SE 2.0mph /  3.2km/h 8.0mph /  12.9km/h 15% 0.00in /  0mm 840.0 W/m2
10:05 79.9 °F /  26.6 °C 28.0 °F /  -2.2 °C 30.16in /  1021.2hPa Calm   3.0mph /  4.8km/h 15% 0.00in /  0mm 856.0 W/m2
10:11 80.4 °F /  26.9 °C 26.8 °F /  -2.9 °C 30.16in /  1021.2hPa ESE 4.0mph /  6.4km/h 8.0mph /  12.9km/h 14% 0.00in /  0mm 874.0 W/m2
10:16 81.0 °F /  27.2 °C 27.3 °F /  -2.6 °C 30.16in /  1021.2hPa ENE 2.0mph /  3.2km/h 5.0mph /  8km/h 14% 0.00in /  0mm 886.0 W/m2
10:21 81.5 °F /  27.5 °C 27.7 °F /  -2.4 °C 30.16in /  1021.2hPa ESE 4.0mph /  6.4km/h 7.0mph /  11.3km/h 14% 0.00in /  0mm 900.0 W/m2
10:26 82.0 °F /  27.8 °C 26.4 °F /  -3.1 °C 30.16in /  1021.2hPa SSE 2.9mph /  4.7km/h 7.0mph /  11.3km/h 13% 0.00in /  0mm 911.0 W/m2
10:31 82.0 °F /  27.8 °C 28.2 °F /  -2.1 °C 30.16in /  1021.2hPa SE 0.9mph /  1.4km/h 5.0mph /  8km/h 14% 0.00in /  0mm 926.0 W/m2
10:36 82.2 °F /  27.9 °C 26.4 °F /  -3.1 °C 30.16in /  1021.2hPa WSW 0.9mph /  1.4km/h 3.0mph /  4.8km/h 13% 0.00in /  0mm 937.0 W/m2
10:37 82.2 °F /  27.9 °C 26.4 °F /  -3.1 °C 30.16in /  1021.2hPa SSW 0.9mph /  1.4km/h 4.0mph /  6.4km/h 13% 0.00in /  0mm 935.0 W/m2
10:42 82.2 °F /  27.9 °C 28.2 °F /  -2.1 °C 30.16in /  1021.2hPa SSE 4.0mph /  6.4km/h 7.0mph /  11.3km/h 14% 0.00in /  0mm 953.0 W/m2
10:47 82.4 °F /  28 °C 28.4 °F /  -2 °C 30.16in /  1021.2hPa SE 6.9mph /  11.1km/h 7.0mph /  11.3km/h 14% 0.00in /  0mm 960.0 W/m2
10:53 82.8 °F /  28.2 °C 28.8 °F /  -1.8 °C 30.16in /  1021.2hPa SSE 6.9mph /  11.1km/h 8.0mph /  12.9km/h 14% 0.00in /  0mm 960.0 W/m2
10:55 82.9 °F /  28.3 °C 27.0 °F /  -2.8 °C 30.16in /  1021.2hPa SSE 0.9mph /  1.4km/h 7.0mph /  11.3km/h 13% 0.00in /  0mm 969.0 W/m2
11:00 83.3 °F /  28.5 °C 27.3 °F /  -2.6 °C 30.15in /  1020.9hPa SE 0.9mph /  1.4km/h 4.0mph /  6.4km/h 13% 0.00in /  0mm 983.0 W/m2
11:06 84.0 °F /  28.9 °C 29.7 °F /  -1.3 °C 30.15in /  1020.9hPa ENE 4.9mph /  7.9km/h 6.0mph /  9.7km/h 14% 0.00in /  0mm 1002.0 W/m2
11:11 84.6 °F /  29.2 °C 30.2 °F /  -1 °C 30.15in /  1020.9hPa SE 0.9mph /  1.4km/h 6.0mph /  9.7km/h 14% 0.00in /  0mm 979.0 W/m2
11:16 85.1 °F /  29.5 °C 30.6 °F /  -0.8 °C 30.15in /  1020.9hPa SE 4.0mph /  6.4km/h 5.0mph /  8km/h 14% 0.00in /  0mm 1000.0 W/m2
11:21 85.6 °F /  29.8 °C 30.9 °F /  -0.6 °C 30.14in /  1020.5hPa SW 4.0mph /  6.4km/h 6.0mph /  9.7km/h 14% 0.00in /  0mm 1014.0 W/m2
11:27 85.8 °F /  29.9 °C 29.3 °F /  -1.5 °C 30.15in /  1020.9hPa SSE 8.1mph /  13km/h 10.0mph /  16.1km/h 13% 0.00in /  0mm 1030.0 W/m2
11:32 85.6 °F /  29.8 °C 30.9 °F /  -0.6 °C 30.14in /  1020.5hPa ESE 0.9mph /  1.4km/h 8.0mph /  12.9km/h 14% 0.00in /  0mm 1032.0 W/m2
11:37 85.5 °F /  29.7 °C 32.5 °F /  0.3 °C 30.14in /  1020.5hPa SSW 2.0mph /  3.2km/h 6.0mph /  9.7km/h 15% 0.00in /  0mm 1035.0 W/m2
11:43 85.8 °F /  29.9 °C 31.1 °F /  -0.5 °C 30.14in /  1020.5hPa SE 2.9mph /  4.7km/h 6.0mph /  9.7km/h 14% 0.00in /  0mm 1051.0 W/m2
11:53 86.9 °F /  30.5 °C 32.0 °F /  0 °C 30.14in /  1020.5hPa SSE 4.0mph /  6.4km/h 12.0mph /  19.3km/h 14% 0.00in /  0mm 1056.0 W/m2
11:58 87.1 °F /  30.6 °C 32.2 °F /  0.1 °C 30.14in /  1020.5hPa SSE 4.0mph /  6.4km/h 10.0mph /  16.1km/h 14% 0.00in /  0mm 1062.0 W/m2
12:03 87.3 °F /  30.7 °C 32.2 °F /  0.1 °C 30.13in /  1020.2hPa SE 2.9mph /  4.7km/h 12.0mph /  19.3km/h 14% 0.00in /  0mm 1067.0 W/m2
12:08 87.4 °F /  30.8 °C 32.4 °F /  0.2 °C 30.13in /  1020.2hPa SE 6.0mph /  9.7km/h 13.0mph /  20.9km/h 14% 0.00in /  0mm 1074.0 W/m2
12:12 87.4 °F /  30.8 °C 34.2 °F /  1.2 °C 30.13in /  1020.2hPa SSE 2.0mph /  3.2km/h 9.0mph /  14.5km/h 15% 0.00in /  0mm 1072.0 W/m2
12:17 87.3 °F /  30.7 °C 32.2 °F /  0.1 °C 30.13in /  1020.2hPa ESE 6.0mph /  9.7km/h 8.0mph /  12.9km/h 14% 0.00in /  0mm 1076.0 W/m2
12:18 87.3 °F /  30.7 °C 32.2 °F /  0.1 °C 30.13in /  1020.2hPa SSE 4.0mph /  6.4km/h 8.0mph /  12.9km/h 14% 0.00in /  0mm 1076.0 W/m2
12:20 87.4 °F /  30.8 °C 32.4 °F /  0.2 °C 30.13in /  1020.2hPa SE 4.9mph /  7.9km/h 8.0mph /  12.9km/h 14% 0.00in /  0mm 1078.0 W/m2
12:26 87.6 °F /  30.9 °C 34.3 °F /  1.3 °C 30.13in /  1020.2hPa ENE 4.9mph /  7.9km/h 7.0mph /  11.3km/h 15% 0.00in /  0mm 1069.0 W/m2
12:28 88.0 °F /  31.1 °C 32.9 °F /  0.5 °C 30.13in /  1020.2hPa SE 8.1mph /  13km/h 9.0mph /  14.5km/h 14% 0.00in /  0mm 1065.0 W/m2
12:33 88.3 °F /  31.3 °C 33.1 °F /  0.6 °C 30.13in /  1020.2hPa SSE 2.9mph /  4.7km/h 13.0mph /  20.9km/h 14% 0.00in /  0mm 1065.0 W/m2
12:38 88.5 °F /  31.4 °C 33.3 °F /  0.7 °C 30.12in /  1019.9hPa SE 6.9mph /  11.1km/h 10.0mph /  16.1km/h 14% 0.00in /  0mm 1076.0 W/m2
12:44 88.9 °F /  31.6 °C 31.6 °F /  -0.2 °C 30.12in /  1019.9hPa ENE 2.0mph /  3.2km/h 6.0mph /  9.7km/h 13% 0.00in /  0mm 1025.0 W/m2
12:48 88.9 °F /  31.6 °C 35.2 °F /  1.8 °C 30.12in /  1019.9hPa SE 6.0mph /  9.7km/h 7.0mph /  11.3km/h 15% 0.00in /  0mm 1013.0 W/m2
12:53 89.2 °F /  31.8 °C 32.0 °F /  0 °C 30.11in /  1019.5hPa ESE 0.9mph /  1.4km/h 5.0mph /  8km/h 13% 0.00in /  0mm 974.0 W/m2
12:58 89.1 °F /  31.7 °C 31.8 °F /  -0.1 °C 30.11in /  1019.5hPa ESE 4.9mph /  7.9km/h 7.0mph /  11.3km/h 13% 0.00in /  0mm 1018.0 W/m2
13:03 89.4 °F /  31.9 °C 34.0 °F /  1.1 °C 30.11in /  1019.5hPa SE 4.0mph /  6.4km/h 9.0mph /  14.5km/h 14% 0.00in /  0mm 997.0 W/m2
13:08 89.6 °F /  32 °C 32.2 °F /  0.1 °C 30.11in /  1019.5hPa SE 4.0mph /  6.4km/h 10.0mph /  16.1km/h 13% 0.00in /  0mm 1011.0 W/m2
13:13 89.8 °F /  32.1 °C 30.4 °F /  -0.9 °C 30.11in /  1019.5hPa South 2.9mph /  4.7km/h 10.0mph /  16.1km/h 12% 0.00in /  0mm 972.0 W/m2
13:19 89.4 °F /  31.9 °C 30.2 °F /  -1 °C 30.11in /  1019.5hPa SSE 0.9mph /  1.4km/h 7.0mph /  11.3km/h 12% 0.00in /  0mm 986.0 W/m2
13:24 89.4 °F /  31.9 °C 30.2 °F /  -1 °C 30.11in /  1019.5hPa SSE 4.0mph /  6.4km/h 6.0mph /  9.7km/h 12% 0.00in /  0mm 1000.0 W/m2
13:29 89.1 °F /  31.7 °C 29.8 °F /  -1.2 °C 30.11in /  1019.5hPa ESE 2.0mph /  3.2km/h 5.0mph /  8km/h 12% 0.00in /  0mm 1023.0 W/m2
13:34 89.1 °F /  31.7 °C 31.8 °F /  -0.1 °C 30.11in /  1019.5hPa ESE 8.9mph /  14.3km/h 9.0mph /  14.5km/h 13% 0.00in /  0mm 1046.0 W/m2
13:38 89.2 °F /  31.8 °C 32.0 °F /  0 °C 30.10in /  1019.2hPa SW 2.0mph /  3.2km/h 4.0mph /  6.4km/h 13% 0.00in /  0mm 1025.0 W/m2
13:43 89.2 °F /  31.8 °C 32.0 °F /  0 °C 30.10in /  1019.2hPa SW 2.0mph /  3.2km/h 8.0mph /  12.9km/h 13% 0.00in /  0mm 1063.0 W/m2
13:48 89.2 °F /  31.8 °C 32.0 °F /  0 °C 30.10in /  1019.2hPa SE 4.0mph /  6.4km/h 7.0mph /  11.3km/h 13% 0.00in /  0mm 1058.0 W/m2
13:53 89.8 °F /  32.1 °C 32.4 °F /  0.2 °C 30.10in /  1019.2hPa SE 0.9mph /  1.4km/h 5.0mph /  8km/h 13% 0.00in /  0mm 1023.0 W/m2
13:58 90.0 °F /  32.2 °C 30.6 °F /  -0.8 °C 30.10in /  1019.2hPa South 4.0mph /  6.4km/h 6.0mph /  9.7km/h 12% 0.00in /  0mm 1039.0 W/m2
14:04 90.1 °F /  32.3 °C 30.7 °F /  -0.7 °C 30.09in /  1018.8hPa Calm   6.0mph /  9.7km/h 12% 0.00in /  0mm 1034.0 W/m2
14:09 90.7 °F /  32.6 °C 31.1 °F /  -0.5 °C 30.10in /  1019.2hPa SE 4.0mph /  6.4km/h 6.0mph /  9.7km/h 12% 0.00in /  0mm 1025.0 W/m2
14:12 91.0 °F /  32.8 °C 31.5 °F /  -0.3 °C 30.09in /  1018.8hPa East 0.9mph /  1.4km/h 7.0mph /  11.3km/h 12% 0.00in /  0mm 1002.0 W/m2
14:17 91.2 °F /  32.9 °C 31.5 °F /  -0.3 °C 30.09in /  1018.8hPa ESE 4.9mph /  7.9km/h 9.0mph /  14.5km/h 12% 0.00in /  0mm 1004.0 W/m2
14:22 91.2 °F /  32.9 °C 29.3 °F /  -1.5 °C 30.09in /  1018.8hPa NE 2.0mph /  3.2km/h 5.0mph /  8km/h 11% 0.00in /  0mm 1004.0 W/m2
14:25 91.0 °F /  32.8 °C 31.5 °F /  -0.3 °C 30.09in /  1018.8hPa SW 4.0mph /  6.4km/h 4.0mph /  6.4km/h 12% 0.00in /  0mm 997.0 W/m2
14:30 91.0 °F /  32.8 °C 31.5 °F /  -0.3 °C 30.09in /  1018.8hPa Calm   1.0mph /  1.6km/h 12% 0.00in /  0mm 986.0 W/m2
14:33 91.4 °F /  33 °C 31.6 °F /  -0.2 °C 30.08in /  1018.5hPa ENE 4.0mph /  6.4km/h 5.0mph /  8km/h 12% 0.00in /  0mm 981.0 W/m2
14:38 92.1 °F /  33.4 °C 30.0 °F /  -1.1 °C 30.09in /  1018.8hPa East 2.9mph /  4.7km/h 9.0mph /  14.5km/h 11% 0.00in /  0mm 974.0 W/m2
14:44 92.7 °F /  33.7 °C 32.7 °F /  0.4 °C 30.08in /  1018.5hPa ENE 0.9mph /  1.4km/h 5.0mph /  8km/h 12% 0.00in /  0mm 963.0 W/m2
14:46 92.7 °F /  33.7 °C 30.6 °F /  -0.8 °C 30.08in /  1018.5hPa NNW 0.9mph /  1.4km/h 3.0mph /  4.8km/h 11% 0.00in /  0mm 956.0 W/m2
14:51 93.0 °F /  33.9 °C 32.9 °F /  0.5 °C 30.08in /  1018.5hPa ENE 2.0mph /  3.2km/h 4.0mph /  6.4km/h 12% 0.00in /  0mm 949.0 W/m2
14:56 93.2 °F /  34 °C 33.1 °F /  0.6 °C 30.08in /  1018.5hPa SE 0.9mph /  1.4km/h 3.0mph /  4.8km/h 12% 0.00in /  0mm 940.0 W/m2
15:01 92.8 °F /  33.8 °C 30.6 °F /  -0.8 °C 30.08in /  1018.5hPa NE 0.9mph /  1.4km/h 5.0mph /  8km/h 11% 0.00in /  0mm 925.0 W/m2
15:06 92.7 °F /  33.7 °C 32.7 °F /  0.4 °C 30.08in /  1018.5hPa Calm   2.0mph /  3.2km/h 12% 0.00in /  0mm 911.0 W/m2
15:08 92.8 °F /  33.8 °C 32.7 °F /  0.4 °C 30.08in /  1018.5hPa Calm   3.0mph /  4.8km/h 12% 0.00in /  0mm 905.0 W/m2
15:13 93.0 °F /  33.9 °C 34.9 °F /  1.6 °C 30.08in /  1018.5hPa WNW 2.0mph /  3.2km/h 3.0mph /  4.8km/h 13% 0.00in /  0mm 893.0 W/m2
15:20 93.4 °F /  34.1 °C 31.1 °F /  -0.5 °C 30.08in /  1018.5hPa Calm   7.0mph /  11.3km/h 11% 0.00in /  0mm 877.0 W/m2
15:25 93.6 °F /  34.2 °C 31.1 °F /  -0.5 °C 30.08in /  1018.5hPa WNW 4.0mph /  6.4km/h 8.0mph /  12.9km/h 11% 0.00in /  0mm 863.0 W/m2
15:30 93.2 °F /  34 °C 33.1 °F /  0.6 °C 30.07in /  1018.2hPa WSW 2.9mph /  4.7km/h 3.0mph /  4.8km/h 12% 0.00in /  0mm 849.0 W/m2
15:38 93.2 °F /  34 °C 30.9 °F /  -0.6 °C 30.07in /  1018.2hPa Calm   3.0mph /  4.8km/h 11% 0.00in /  0mm 826.0 W/m2
15:43 93.4 °F /  34.1 °C 31.1 °F /  -0.5 °C 30.07in /  1018.2hPa Calm   1.0mph /  1.6km/h 11% 0.00in /  0mm 810.0 W/m2
15:48 93.6 °F /  34.2 °C 31.1 °F /  -0.5 °C 30.07in /  1018.2hPa SW 2.0mph /  3.2km/h 2.0mph /  3.2km/h 11% 0.00in /  0mm 795.0 W/m2
15:50 93.6 °F /  34.2 °C 31.1 °F /  -0.5 °C 30.06in /  1017.8hPa Calm   3.0mph /  4.8km/h 11% 0.00in /  0mm 789.0 W/m2
15:55 93.9 °F /  34.4 °C 31.5 °F /  -0.3 °C 30.06in /  1017.8hPa Calm   3.0mph /  4.8km/h 11% 0.00in /  0mm 777.0 W/m2
16:00 94.1 °F /  34.5 °C 31.6 °F /  -0.2 °C 30.06in /  1017.8hPa SSE 4.9mph /  7.9km/h 8.0mph /  12.9km/h 11% 0.00in /  0mm 759.0 W/m2
16:05 93.9 °F /  34.4 °C 35.6 °F /  2 °C 30.05in /  1017.5hPa SE 2.9mph /  4.7km/h 5.0mph /  8km/h 13% 0.00in /  0mm 742.0 W/m2
16:10 94.1 °F /  34.5 °C 31.6 °F /  -0.2 °C 30.05in /  1017.5hPa SW 0.9mph /  1.4km/h 4.0mph /  6.4km/h 11% 0.00in /  0mm 726.0 W/m2
16:15 93.9 °F /  34.4 °C 33.6 °F /  0.9 °C 30.05in /  1017.5hPa Calm   5.0mph /  8km/h 12% 0.00in /  0mm 708.0 W/m2
16:20 94.5 °F /  34.7 °C 34.0 °F /  1.1 °C 30.05in /  1017.5hPa SSW 2.9mph /  4.7km/h 4.0mph /  6.4km/h 12% 0.00in /  0mm 693.0 W/m2
16:25 94.6 °F /  34.8 °C 34.2 °F /  1.2 °C 30.05in /  1017.5hPa Calm   5.0mph /  8km/h 12% 0.00in /  0mm 675.0 W/m2
16:31 94.6 °F /  34.8 °C 32.0 °F /  0 °C 30.05in /  1017.5hPa WSW 2.0mph /  3.2km/h 7.0mph /  11.3km/h 11% 0.00in /  0mm 657.0 W/m2
16:36 93.6 °F /  34.2 °C 31.1 °F /  -0.5 °C 30.05in /  1017.5hPa Calm   7.0mph /  11.3km/h 11% 0.00in /  0mm 640.0 W/m2
16:38 93.4 °F /  34.1 °C 31.1 °F /  -0.5 °C 30.04in /  1017.2hPa West 2.9mph /  4.7km/h 6.0mph /  9.7km/h 11% 0.00in /  0mm 635.0 W/m2
16:43 93.0 °F /  33.9 °C 30.7 °F /  -0.7 °C 30.04in /  1017.2hPa Calm   2.0mph /  3.2km/h 11% 0.00in /  0mm 617.0 W/m2
16:48 93.2 °F /  34 °C 30.9 °F /  -0.6 °C 30.04in /  1017.2hPa South 4.0mph /  6.4km/h 6.0mph /  9.7km/h 11% 0.00in /  0mm 596.0 W/m2
16:53 93.4 °F /  34.1 °C 31.1 °F /  -0.5 °C 30.04in /  1017.2hPa WSW 2.0mph /  3.2km/h 3.0mph /  4.8km/h 11% 0.00in /  0mm 578.0 W/m2
16:58 93.7 °F /  34.3 °C 31.3 °F /  -0.4 °C 30.04in /  1017.2hPa SSE 2.0mph /  3.2km/h 8.0mph /  12.9km/h 11% 0.00in /  0mm 559.0 W/m2
17:03 94.3 °F /  34.6 °C 33.8 °F /  1 °C 30.04in /  1017.2hPa SE 0.9mph /  1.4km/h 6.0mph /  9.7km/h 12% 0.00in /  0mm 540.0 W/m2
17:09 94.5 °F /  34.7 °C 29.5 °F /  -1.4 °C 30.04in /  1017.2hPa West 0.9mph /  1.4km/h 2.0mph /  3.2km/h 10% 0.00in /  0mm 519.0 W/m2
17:12 94.5 °F /  34.7 °C 31.8 °F /  -0.1 °C 30.04in /  1017.2hPa Calm   3.0mph /  4.8km/h 11% 0.00in /  0mm 510.0 W/m2
17:17 94.6 °F /  34.8 °C 29.7 °F /  -1.3 °C 30.03in /  1016.8hPa SSE 2.0mph /  3.2km/h 5.0mph /  8km/h 10% 0.00in /  0mm 490.0 W/m2
17:19 94.6 °F /  34.8 °C 32.0 °F /  0 °C 30.03in /  1016.8hPa South 2.0mph /  3.2km/h 4.0mph /  6.4km/h 11% 0.00in /  0mm 483.0 W/m2
17:24 94.8 °F /  34.9 °C 29.8 °F /  -1.2 °C 30.03in /  1016.8hPa SE 2.0mph /  3.2km/h 5.0mph /  8km/h 10% 0.00in /  0mm 464.0 W/m2
17:34 95.0 °F /  35 °C 32.2 °F /  0.1 °C 30.03in /  1016.8hPa ESE 2.0mph /  3.2km/h 4.0mph /  6.4km/h 11% 0.00in /  0mm 425.0 W/m2
17:39 95.0 °F /  35 °C 32.2 °F /  0.1 °C 30.03in /  1016.8hPa North 0.9mph /  1.4km/h 4.0mph /  6.4km/h 11% 0.00in /  0mm 404.0 W/m2
17:44 95.2 °F /  35.1 °C 32.4 °F /  0.2 °C 30.03in /  1016.8hPa Calm   3.0mph /  4.8km/h 11% 0.00in /  0mm 385.0 W/m2
17:50 95.5 °F /  35.3 °C 30.4 °F /  -0.9 °C 30.03in /  1016.8hPa Calm   4.0mph /  6.4km/h 10% 0.00in /  0mm 366.0 W/m2
17:56 95.2 °F /  35.1 °C 32.4 °F /  0.2 °C 30.03in /  1016.8hPa SE 0.9mph /  1.4km/h 3.0mph /  4.8km/h 11% 0.00in /  0mm 279.0 W/m2
18:01 94.8 °F /  34.9 °C 34.3 °F /  1.3 °C 30.03in /  1016.8hPa Calm   1.0mph /  1.6km/h 12% 0.00in /  0mm 37.0 W/m2
18:06 94.3 °F /  34.6 °C 31.6 °F /  -0.2 °C 30.03in /  1016.8hPa Calm   4.0mph /  6.4km/h 11% 0.00in /  0mm 84.0 W/m2
18:08 93.7 °F /  34.3 °C 28.9 °F /  -1.7 °C 30.03in /  1016.8hPa Calm   2.0mph /  3.2km/h 10% 0.00in /  0mm 44.0 W/m2
18:13 93.0 °F /  33.9 °C 32.9 °F /  0.5 °C 30.03in /  1016.8hPa ENE 2.0mph /  3.2km/h 2.0mph /  3.2km/h 12% 0.00in /  0mm 142.0 W/m2
18:23 92.7 °F /  33.7 °C 32.7 °F /  0.4 °C 30.03in /  1016.8hPa Calm   7.0mph /  11.3km/h 12% 0.00in /  0mm 229.0 W/m2
18:28 92.7 °F /  33.7 °C 32.7 °F /  0.4 °C 30.03in /  1016.8hPa Calm   5.0mph /  8km/h 12% 0.00in /  0mm 206.0 W/m2
18:31 92.7 °F /  33.7 °C 32.7 °F /  0.4 °C 30.03in /  1016.8hPa ESE 2.9mph /  4.7km/h 5.0mph /  8km/h 12% 0.00in /  0mm 174.0 W/m2
18:36 92.7 °F /  33.7 °C 32.7 °F /  0.4 °C 30.03in /  1016.8hPa SSE 2.9mph /  4.7km/h 4.0mph /  6.4km/h 12% 0.00in /  0mm 90.0 W/m2
18:47 91.8 °F /  33.2 °C 32.0 °F /  0 °C 30.04in /  1017.2hPa SSE 4.9mph /  7.9km/h 7.0mph /  11.3km/h 12% 0.00in /  0mm 30.0 W/m2
18:52 91.0 °F /  32.8 °C 31.5 °F /  -0.3 °C 30.04in /  1017.2hPa SSW 4.0mph /  6.4km/h 4.0mph /  6.4km/h 12% 0.00in /  0mm 28.0 W/m2
18:57 90.3 °F /  32.4 °C 30.7 °F /  -0.7 °C 30.04in /  1017.2hPa SSE 2.9mph /  4.7km/h 6.0mph /  9.7km/h 12% 0.00in /  0mm 25.0 W/m2
19:02 89.8 °F /  32.1 °C 30.4 °F /  -0.9 °C 30.05in /  1017.5hPa SE 4.0mph /  6.4km/h 6.0mph /  9.7km/h 12% 0.00in /  0mm 21.0 W/m2
19:07 89.1 °F /  31.7 °C 29.8 °F /  -1.2 °C 30.05in /  1017.5hPa SSE 8.1mph /  13km/h 8.1mph /  13km/h 12% 0.00in /  0mm 19.0 W/m2
19:12 88.3 °F /  31.3 °C 29.3 °F /  -1.5 °C 30.05in /  1017.5hPa South 4.9mph /  7.9km/h 7.0mph /  11.3km/h 12% 0.00in /  0mm 18.0 W/m2
19:18 87.8 °F /  31 °C 28.9 °F /  -1.7 °C 30.05in /  1017.5hPa SE 4.0mph /  6.4km/h 6.0mph /  9.7km/h 12% 0.00in /  0mm 14.0 W/m2
19:24 87.4 °F /  30.8 °C 30.6 °F /  -0.8 °C 30.05in /  1017.5hPa Calm   6.0mph /  9.7km/h 13% 0.00in /  0mm 11.0 W/m2
19:29 87.1 °F /  30.6 °C 30.2 °F /  -1 °C 30.06in /  1017.8hPa SSE 0.9mph /  1.4km/h 7.0mph /  11.3km/h 13% 0.00in /  0mm 7.0 W/m2
19:34 86.5 °F /  30.3 °C 29.8 °F /  -1.2 °C 30.06in /  1017.8hPa SE 4.9mph /  7.9km/h 5.0mph /  8km/h 13% 0.00in /  0mm 5.0 W/m2
19:40 86.2 °F /  30.1 °C 29.7 °F /  -1.3 °C 30.06in /  1017.8hPa SE 0.9mph /  1.4km/h 5.0mph /  8km/h 13% 0.00in /  0mm 0.0 W/m2
19:45 85.8 °F /  29.9 °C 29.3 °F /  -1.5 °C 30.07in /  1018.2hPa Calm   7.0mph /  11.3km/h 13% 0.00in /  0mm 0.0 W/m2
19:50 85.5 °F /  29.7 °C 28.9 °F /  -1.7 °C 30.07in /  1018.2hPa SSE 6.0mph /  9.7km/h 8.0mph /  12.9km/h 13% 0.00in /  0mm 0.0 W/m2
19:53 85.3 °F /  29.6 °C 28.9 °F /  -1.7 °C 30.07in /  1018.2hPa SE 6.9mph /  11.1km/h 10.0mph /  16.1km/h 13% 0.00in /  0mm 0.0 W/m2
19:58 84.7 °F /  29.3 °C 28.4 °F /  -2 °C 30.07in /  1018.2hPa South 6.0mph /  9.7km/h 8.0mph /  12.9km/h 13% 0.00in /  0mm 0.0 W/m2
20:02 84.6 °F /  29.2 °C 28.4 °F /  -2 °C 30.08in /  1018.5hPa SSE 2.9mph /  4.7km/h 9.0mph /  14.5km/h 13% 0.00in /  0mm 0.0 W/m2
20:07 84.4 °F /  29.1 °C 28.2 °F /  -2.1 °C 30.08in /  1018.5hPa South 2.9mph /  4.7km/h 6.0mph /  9.7km/h 13% 0.00in /  0mm 0.0 W/m2
20:12 84.0 °F /  28.9 °C 27.9 °F /  -2.3 °C 30.08in /  1018.5hPa SE 6.9mph /  11.1km/h 8.0mph /  12.9km/h 13% 0.00in /  0mm 0.0 W/m2
20:17 83.8 °F /  28.8 °C 27.7 °F /  -2.4 °C 30.08in /  1018.5hPa SSE 4.0mph /  6.4km/h 10.0mph /  16.1km/h 13% 0.00in /  0mm 0.0 W/m2
20:22 83.8 °F /  28.8 °C 27.7 °F /  -2.4 °C 30.08in /  1018.5hPa ESE 4.0mph /  6.4km/h 6.0mph /  9.7km/h 13% 0.00in /  0mm 0.0 W/m2
20:27 83.7 °F /  28.7 °C 29.5 °F /  -1.4 °C 30.09in /  1018.8hPa SSE 6.9mph /  11.1km/h 7.0mph /  11.3km/h 14% 0.00in /  0mm 0.0 W/m2
20:32 83.5 °F /  28.6 °C 29.3 °F /  -1.5 °C 30.09in /  1018.8hPa ESE 4.9mph /  7.9km/h 5.0mph /  8km/h 14% 0.00in /  0mm 0.0 W/m2
20:37 83.1 °F /  28.4 °C 28.9 °F /  -1.7 °C 30.10in /  1019.2hPa Calm   5.0mph /  8km/h 14% 0.00in /  0mm 0.0 W/m2
20:42 82.8 °F /  28.2 °C 28.8 °F /  -1.8 °C 30.10in /  1019.2hPa SE 2.9mph /  4.7km/h 4.0mph /  6.4km/h 14% 0.00in /  0mm 0.0 W/m2
20:47 82.6 °F /  28.1 °C 28.6 °F /  -1.9 °C 30.10in /  1019.2hPa ESE 2.0mph /  3.2km/h 5.0mph /  8km/h 14% 0.00in /  0mm 0.0 W/m2
20:52 82.2 °F /  27.9 °C 30.0 °F /  -1.1 °C 30.10in /  1019.2hPa SE 2.9mph /  4.7km/h 7.0mph /  11.3km/h 15% 0.00in /  0mm 0.0 W/m2
20:57 82.0 °F /  27.8 °C 29.8 °F /  -1.2 °C 30.10in /  1019.2hPa Calm   3.0mph /  4.8km/h 15% 0.00in /  0mm 0.0 W/m2
21:03 81.9 °F /  27.7 °C 29.7 °F /  -1.3 °C 30.10in /  1019.2hPa SSE 2.9mph /  4.7km/h 5.0mph /  8km/h 15% 0.00in /  0mm 0.0 W/m2
21:05 81.7 °F /  27.6 °C 27.9 °F /  -2.3 °C 30.11in /  1019.5hPa SSE 2.9mph /  4.7km/h 8.0mph /  12.9km/h 14% 0.00in /  0mm 0.0 W/m2
21:11 81.5 °F /  27.5 °C 27.7 °F /  -2.4 °C 30.11in /  1019.5hPa ESE 8.9mph /  14.3km/h 9.0mph /  14.5km/h 14% 0.00in /  0mm 0.0 W/m2
21:16 81.5 °F /  27.5 °C 27.7 °F /  -2.4 °C 30.11in /  1019.5hPa Calm   3.0mph /  4.8km/h 14% 0.00in /  0mm 0.0 W/m2
21:21 81.3 °F /  27.4 °C 29.3 °F /  -1.5 °C 30.11in /  1019.5hPa Calm   1.0mph /  1.6km/h 15% 0.00in /  0mm 0.0 W/m2
21:26 81.1 °F /  27.3 °C 29.1 °F /  -1.6 °C 30.12in /  1019.9hPa SW 0.9mph /  1.4km/h 3.0mph /  4.8km/h 15% 0.00in /  0mm 0.0 W/m2
21:31 81.0 °F /  27.2 °C 28.9 °F /  -1.7 °C 30.12in /  1019.9hPa South 4.0mph /  6.4km/h 6.0mph /  9.7km/h 15% 0.00in /  0mm 0.0 W/m2
21:36 80.6 °F /  27 °C 28.8 °F /  -1.8 °C 30.12in /  1019.9hPa Calm   1.0mph /  1.6km/h 15% 0.00in /  0mm 0.0 W/m2
21:41 80.2 °F /  26.8 °C 28.4 °F /  -2 °C 30.12in /  1019.9hPa Calm   5.0mph /  8km/h 15% 0.00in /  0mm 0.0 W/m2
21:44 80.1 °F /  26.7 °C 29.8 °F /  -1.2 °C 30.12in /  1019.9hPa Calm   2.0mph /  3.2km/h 16% 0.00in /  0mm 0.0 W/m2
21:50 79.7 °F /  26.5 °C 29.5 °F /  -1.4 °C 30.13in /  1020.2hPa SE 0.9mph /  1.4km/h 3.0mph /  4.8km/h 16% 0.00in /  0mm 0.0 W/m2
21:55 79.3 °F /  26.3 °C 27.7 °F /  -2.4 °C 30.13in /  1020.2hPa SSW 0.9mph /  1.4km/h 1.0mph /  1.6km/h 15% 0.00in /  0mm 0.0 W/m2
22:00 79.2 °F /  26.2 °C 29.1 °F /  -1.6 °C 30.13in /  1020.2hPa Calm   1.0mph /  1.6km/h 16% 0.00in /  0mm 0.0 W/m2
22:01 79.2 °F /  26.2 °C 29.1 °F /  -1.6 °C 30.13in /  1020.2hPa Calm     16% 0.00in /  0mm 0.0 W/m2
22:06 78.8 °F /  26 °C 30.4 °F /  -0.9 °C 30.13in /  1020.2hPa Calm     17% 0.00in /  0mm 0.0 W/m2
22:11 78.3 °F /  25.7 °C 28.4 °F /  -2 °C 30.14in /  1020.5hPa SE 2.0mph /  3.2km/h 3.0mph /  4.8km/h 16% 0.00in /  0mm 0.0 W/m2
22:16 77.9 °F /  25.5 °C 28.0 °F /  -2.2 °C 30.14in /  1020.5hPa Calm   2.0mph /  3.2km/h 16% 0.00in /  0mm 0.0 W/m2
22:21 77.7 °F /  25.4 °C 27.9 °F /  -2.3 °C 30.14in /  1020.5hPa Calm   1.0mph /  1.6km/h 16% 0.00in /  0mm 0.0 W/m2
22:23 77.5 °F /  25.3 °C 29.3 °F /  -1.5 °C 30.14in /  1020.5hPa SE 0.9mph /  1.4km/h 2.0mph /  3.2km/h 17% 0.00in /  0mm 0.0 W/m2
22:28 77.4 °F /  25.2 °C 29.1 °F /  -1.6 °C 30.14in /  1020.5hPa Calm   1.0mph /  1.6km/h 17% 0.00in /  0mm 0.0 W/m2
22:33 77.0 °F /  25 °C 30.2 °F /  -1 °C 30.15in /  1020.9hPa Calm     18% 0.00in /  0mm 0.0 W/m2
22:38 76.6 °F /  24.8 °C 31.3 °F /  -0.4 °C 30.15in /  1020.9hPa NW 0.9mph /  1.4km/h 1.0mph /  1.6km/h 19% 0.00in /  0mm 0.0 W/m2
22:43 76.3 °F /  24.6 °C 30.9 °F /  -0.6 °C 30.15in /  1020.9hPa Calm     19% 0.00in /  0mm 0.0 W/m2
22:49 75.7 °F /  24.3 °C 30.6 °F /  -0.8 °C 30.16in /  1021.2hPa NNW 2.9mph /  4.7km/h 3.0mph /  4.8km/h 19% 0.00in /  0mm 0.0 W/m2
22:54 75.4 °F /  24.1 °C 30.2 °F /  -1 °C 30.16in /  1021.2hPa Calm   1.0mph /  1.6km/h 19% 0.00in /  0mm 0.0 W/m2
23:00 75.0 °F /  23.9 °C 31.3 °F /  -0.4 °C 30.16in /  1021.2hPa Calm   2.0mph /  3.2km/h 20% 0.00in /  0mm 0.0 W/m2
23:05 74.7 °F /  23.7 °C 30.9 °F /  -0.6 °C 30.16in /  1021.2hPa Calm     20% 0.00in /  0mm 0.0 W/m2
23:11 74.5 °F /  23.6 °C 30.7 °F /  -0.7 °C 30.16in /  1021.2hPa Calm   1.0mph /  1.6km/h 20% 0.00in /  0mm 0.0 W/m2
23:17 74.1 °F /  23.4 °C 30.6 °F /  -0.8 °C 30.16in /  1021.2hPa Calm   2.0mph /  3.2km/h 20% 0.00in /  0mm 0.0 W/m2
23:20 73.9 °F /  23.3 °C 29.1 °F /  -1.6 °C 30.16in /  1021.2hPa Calm   1.0mph /  1.6km/h 19% 0.00in /  0mm 0.0 W/m2
23:22 73.9 °F /  23.3 °C 29.1 °F /  -1.6 °C 30.16in /  1021.2hPa Calm     19% 0.00in /  0mm 0.0 W/m2
23:27 73.8 °F /  23.2 °C 28.9 °F /  -1.7 °C 30.16in /  1021.2hPa Calm   1.0mph /  1.6km/h 19% 0.00in /  0mm 0.0 W/m2
23:32 73.6 °F /  23.1 °C 30.0 °F /  -1.1 °C 30.16in /  1021.2hPa NNW 0.9mph /  1.4km/h 1.0mph /  1.6km/h 20% 0.00in /  0mm 0.0 W/m2
23:37 73.6 °F /  23.1 °C 30.0 °F /  -1.1 °C 30.16in /  1021.2hPa Calm   2.0mph /  3.2km/h 20% 0.00in /  0mm 0.0 W/m2
23:43 73.6 °F /  23.1 °C 31.3 °F /  -0.4 °C 30.16in /  1021.2hPa Calm   3.0mph /  4.8km/h 21% 0.00in /  0mm 0.0 W/m2
23:48 73.9 °F /  23.3 °C 31.5 °F /  -0.3 °C 30.16in /  1021.2hPa South 2.0mph /  3.2km/h 10.0mph /  16.1km/h 21% 0.00in /  0mm 0.0 W/m2
23:53 74.7 °F /  23.7 °C 32.2 °F /  0.1 °C 30.16in /  1021.2hPa ESE 12.1mph /  19.5km/h 12.1mph /  19.5km/h 21% 0.00in /  0mm 0.0 W/m2
23:55 74.8 °F /  23.8 °C 32.4 °F /  0.2 °C 30.16in /  1021.2hPa ENE 0.9mph /  1.4km/h 11.0mph /  17.7km/h 21% 0.00in /  0mm 0.0 W/m2
Olympia, Windhoek, Namibia
Compliments of Weather Underground - 3.5 mb